Terminal Aerodrome Forecast
Issued by NWS

Home | Current Version | Previous Version | Graphics & Text | Print | Product List | Glossary On
Versions: 1 2 3 4 5 6 7 8 9 10 11 12 13 14 15 16 17 18 19 20
000
FTUS43 KOAX 310722 AAA
TAFCDR
TAF AMD
KCDR 310722Z 3107/0106 12007KT 4SM BR SCT010
     FM311300 16010KT P6SM BKN015
     FM311700 17026G36KT P6SM SCT020
     FM312100 17021G28KT P6SM SCT250=

USA.gov is the U.S. government's official web portal to all federal, state and local government web resources and services.